sensor_id;sensor_type;location;lat;lon;timestamp;P1;durP1;ratioP1;P2;durP2;ratioP2
22995;SDS011;11664;49.774;8.650;2023-05-09T00:01:36;12.93;;;11.73;;
22995;SDS011;11664;49.774;8.650;2023-05-09T00:04:03;13.27;;;12.13;;
22995;SDS011;11664;49.774;8.650;2023-05-09T00:06:29;17.48;;;16.08;;
22995;SDS011;11664;49.774;8.650;2023-05-09T00:08:54;16.80;;;15.20;;
22995;SDS011;11664;49.774;8.650;2023-05-09T00:11:20;17.15;;;15.65;;
22995;SDS011;11664;49.774;8.650;2023-05-09T00:13:46;12.05;;;11.25;;
22995;SDS011;11664;49.774;8.650;2023-05-09T00:16:13;23.17;;;21.42;;
22995;SDS011;11664;49.774;8.650;2023-05-09T00:18:39;16.50;;;15.20;;
22995;SDS011;11664;49.774;8.650;2023-05-09T00:21:06;15.35;;;14.05;;
22995;SDS011;11664;49.774;8.650;2023-05-09T00:23:32;24.52;;;22.75;;
22995;SDS011;11664;49.774;8.650;2023-05-09T00:25:58;14.48;;;13.30;;
22995;SDS011;11664;49.774;8.650;2023-05-09T00:28:24;13.07;;;12.05;;
22995;SDS011;11664;49.774;8.650;2023-05-09T00:30:50;9.90;;;8.82;;
22995;SDS011;11664;49.774;8.650;2023-05-09T00:33:15;10.05;;;9.20;;
22995;SDS011;11664;49.774;8.650;2023-05-09T00:35:41;10.50;;;8.85;;
22995;SDS011;11664;49.774;8.650;2023-05-09T00:38:06;11.90;;;11.00;;
22995;SDS011;11664;49.774;8.650;2023-05-09T00:40:32;11.15;;;9.45;;
22995;SDS011;11664;49.774;8.650;2023-05-09T00:42:58;10.13;;;9.30;;
22995;SDS011;11664;49.774;8.650;2023-05-09T00:45:24;13.48;;;12.48;;
22995;SDS011;11664;49.774;8.650;2023-05-09T00:47:50;11.02;;;10.18;;
22995;SDS011;11664;49.774;8.650;2023-05-09T00:50:15;12.75;;;11.77;;
22995;SDS011;11664;49.774;8.650;2023-05-09T00:52:41;14.35;;;13.15;;
22995;SDS011;11664;49.774;8.650;2023-05-09T00:55:07;15.77;;;14.32;;
22995;SDS011;11664;49.774;8.650;2023-05-09T00:57:33;17.23;;;15.63;;
22995;SDS011;11664;49.774;8.650;2023-05-09T00:59:59;17.48;;;16.05;;
22995;SDS011;11664;49.774;8.650;2023-05-09T01:02:25;15.15;;;13.55;;
22995;SDS011;11664;49.774;8.650;2023-05-09T01:04:51;17.38;;;16.02;;
22995;SDS011;11664;49.774;8.650;2023-05-09T01:12:25;15.85;;;14.65;;
22995;SDS011;11664;49.774;8.650;2023-05-09T01:18:00;15.63;;;9.70;;
22995;SDS011;11664;49.774;8.650;2023-05-09T01:21:04;11.00;;;9.93;;
22995;SDS011;11664;49.774;8.650;2023-05-09T01:29:18;9.98;;;8.48;;
22995;SDS011;11664;49.774;8.650;2023-05-09T01:32:10;10.40;;;8.30;;
22995;SDS011;11664;49.774;8.650;2023-05-09T01:34:47;8.82;;;7.93;;
22995;SDS011;11664;49.774;8.650;2023-05-09T01:37:15;11.07;;;9.85;;
22995;SDS011;11664;49.774;8.650;2023-05-09T01:39:45;10.85;;;9.75;;
22995;SDS011;11664;49.774;8.650;2023-05-09T01:42:15;12.55;;;9.52;;
22995;SDS011;11664;49.774;8.650;2023-05-09T01:44:44;10.57;;;8.70;;
22995;SDS011;11664;49.774;8.650;2023-05-09T01:47:11;8.68;;;7.78;;
22995;SDS011;11664;49.774;8.650;2023-05-09T01:49:40;8.43;;;7.53;;
22995;SDS011;11664;49.774;8.650;2023-05-09T01:52:07;9.82;;;8.88;;
22995;SDS011;11664;49.774;8.650;2023-05-09T01:54:35;9.85;;;8.85;;
22995;SDS011;11664;49.774;8.650;2023-05-09T01:57:03;13.75;;;12.45;;
22995;SDS011;11664;49.774;8.650;2023-05-09T01:59:30;11.10;;;10.05;;
22995;SDS011;11664;49.774;8.650;2023-05-09T02:01:58;12.88;;;11.85;;
22995;SDS011;11664;49.774;8.650;2023-05-09T02:04:24;10.70;;;9.68;;
22995;SDS011;11664;49.774;8.650;2023-05-09T02:06:52;13.23;;;11.70;;
22995;SDS011;11664;49.774;8.650;2023-05-09T02:09:18;11.30;;;10.30;;
22995;SDS011;11664;49.774;8.650;2023-05-09T02:11:44;12.27;;;11.20;;
22995;SDS011;11664;49.774;8.650;2023-05-09T02:14:11;8.73;;;7.82;;
22995;SDS011;11664;49.774;8.650;2023-05-09T02:16:37;10.63;;;8.85;;
22995;SDS011;11664;49.774;8.650;2023-05-09T02:19:03;13.00;;;11.82;;
22995;SDS011;11664;49.774;8.650;2023-05-09T02:21:29;16.90;;;15.23;;
22995;SDS011;11664;49.774;8.650;2023-05-09T02:23:55;13.50;;;12.38;;
22995;SDS011;11664;49.774;8.650;2023-05-09T02:26:21;15.32;;;14.07;;
22995;SDS011;11664;49.774;8.650;2023-05-09T02:28:48;10.65;;;9.60;;
22995;SDS011;11664;49.774;8.650;2023-05-09T02:31:14;14.40;;;13.07;;
22995;SDS011;11664;49.774;8.650;2023-05-09T02:33:44;13.93;;;11.18;;
22995;SDS011;11664;49.774;8.650;2023-05-09T02:36:12;13.38;;;12.23;;
22995;SDS011;11664;49.774;8.650;2023-05-09T02:38:38;17.27;;;15.90;;
22995;SDS011;11664;49.774;8.650;2023-05-09T02:41:05;20.08;;;18.50;;
22995;SDS011;11664;49.774;8.650;2023-05-09T02:43:31;23.02;;;21.48;;
22995;SDS011;11664;49.774;8.650;2023-05-09T02:45:57;20.30;;;18.65;;
22995;SDS011;11664;49.774;8.650;2023-05-09T02:48:22;14.30;;;12.82;;
22995;SDS011;11664;49.774;8.650;2023-05-09T02:50:48;12.00;;;10.90;;
22995;SDS011;11664;49.774;8.650;2023-05-09T02:53:13;10.25;;;9.35;;
22995;SDS011;11664;49.774;8.650;2023-05-09T02:55:39;11.70;;;10.57;;
22995;SDS011;11664;49.774;8.650;2023-05-09T02:58:04;17.73;;;16.23;;
22995;SDS011;11664;49.774;8.650;2023-05-09T03:00:32;12.20;;;11.07;;
22995;SDS011;11664;49.774;8.650;2023-05-09T03:02:57;15.88;;;12.65;;
22995;SDS011;11664;49.774;8.650;2023-05-09T03:05:24;15.43;;;13.63;;
22995;SDS011;11664;49.774;8.650;2023-05-09T03:07:49;18.52;;;16.98;;
22995;SDS011;11664;49.774;8.650;2023-05-09T03:10:15;19.80;;;18.20;;
22995;SDS011;11664;49.774;8.650;2023-05-09T03:12:41;11.82;;;10.32;;
22995;SDS011;11664;49.774;8.650;2023-05-09T03:15:07;13.02;;;11.55;;
22995;SDS011;11664;49.774;8.650;2023-05-09T03:17:33;26.30;;;24.23;;
22995;SDS011;11664;49.774;8.650;2023-05-09T03:19:59;22.25;;;20.45;;
22995;SDS011;11664;49.774;8.650;2023-05-09T03:22:25;21.98;;;20.23;;
22995;SDS011;11664;49.774;8.650;2023-05-09T03:24:50;25.77;;;23.95;;
22995;SDS011;11664;49.774;8.650;2023-05-09T03:27:16;29.23;;;27.08;;
22995;SDS011;11664;49.774;8.650;2023-05-09T03:29:41;14.35;;;12.98;;
22995;SDS011;11664;49.774;8.650;2023-05-09T03:32:07;27.60;;;25.58;;
22995;SDS011;11664;49.774;8.650;2023-05-09T03:34:32;20.42;;;18.67;;
22995;SDS011;11664;49.774;8.650;2023-05-09T03:36:58;43.20;;;40.25;;
22995;SDS011;11664;49.774;8.650;2023-05-09T03:39:23;27.67;;;25.58;;
22995;SDS011;11664;49.774;8.650;2023-05-09T03:41:49;30.00;;;27.30;;
22995;SDS011;11664;49.774;8.650;2023-05-09T03:44:15;46.20;;;32.53;;
22995;SDS011;11664;49.774;8.650;2023-05-09T03:46:40;71.80;;;67.40;;
22995;SDS011;11664;49.774;8.650;2023-05-09T03:49:06;70.43;;;65.60;;
22995;SDS011;11664;49.774;8.650;2023-05-09T03:51:31;57.20;;;53.53;;
22995;SDS011;11664;49.774;8.650;2023-05-09T03:53:57;22.85;;;21.05;;
22995;SDS011;11664;49.774;8.650;2023-05-09T03:56:22;28.83;;;25.10;;
22995;SDS011;11664;49.774;8.650;2023-05-09T03:58:48;54.05;;;50.55;;
22995;SDS011;11664;49.774;8.650;2023-05-09T04:01:14;33.15;;;30.85;;
22995;SDS011;11664;49.774;8.650;2023-05-09T04:03:40;76.72;;;72.10;;
22995;SDS011;11664;49.774;8.650;2023-05-09T04:06:06;49.90;;;46.63;;
22995;SDS011;11664;49.774;8.650;2023-05-09T04:08:31;45.72;;;42.78;;
22995;SDS011;11664;49.774;8.650;2023-05-09T04:10:57;21.45;;;19.70;;
22995;SDS011;11664;49.774;8.650;2023-05-09T04:13:23;21.92;;;20.20;;
22995;SDS011;11664;49.774;8.650;2023-05-09T04:15:48;22.13;;;20.33;;
22995;SDS011;11664;49.774;8.650;2023-05-09T04:18:14;17.00;;;15.48;;
22995;SDS011;11664;49.774;8.650;2023-05-09T04:20:39;19.90;;;18.30;;
22995;SDS011;11664;49.774;8.650;2023-05-09T04:23:05;28.58;;;26.42;;
22995;SDS011;11664;49.774;8.650;2023-05-09T04:25:30;52.72;;;49.38;;
22995;SDS011;11664;49.774;8.650;2023-05-09T04:27:56;43.45;;;40.42;;
22995;SDS011;11664;49.774;8.650;2023-05-09T04:30:22;38.88;;;35.92;;
22995;SDS011;11664;49.774;8.650;2023-05-09T04:32:50;41.38;;;38.42;;
22995;SDS011;11664;49.774;8.650;2023-05-09T04:35:17;30.40;;;28.13;;
22995;SDS011;11664;49.774;8.650;2023-05-09T04:37:43;24.08;;;22.23;;
22995;SDS011;11664;49.774;8.650;2023-05-09T04:40:08;21.48;;;19.50;;
22995;SDS011;11664;49.774;8.650;2023-05-09T04:42:35;25.48;;;23.35;;
22995;SDS011;11664;49.774;8.650;2023-05-09T04:45:01;15.20;;;13.70;;
22995;SDS011;11664;49.774;8.650;2023-05-09T04:47:27;21.20;;;19.45;;
22995;SDS011;11664;49.774;8.650;2023-05-09T04:49:53;12.23;;;11.02;;
22995;SDS011;11664;49.774;8.650;2023-05-09T04:52:18;14.88;;;9.13;;
22995;SDS011;11664;49.774;8.650;2023-05-09T04:54:44;11.05;;;8.80;;
22995;SDS011;11664;49.774;8.650;2023-05-09T04:57:09;11.23;;;9.38;;
22995;SDS011;11664;49.774;8.650;2023-05-09T04:59:35;13.52;;;11.68;;
22995;SDS011;11664;49.774;8.650;2023-05-09T05:02:01;18.88;;;17.27;;
22995;SDS011;11664;49.774;8.650;2023-05-09T05:04:27;25.58;;;23.77;;
22995;SDS011;11664;49.774;8.650;2023-05-09T05:06:53;19.30;;;17.75;;
22995;SDS011;11664;49.774;8.650;2023-05-09T05:09:18;12.23;;;9.90;;
22995;SDS011;11664;49.774;8.650;2023-05-09T05:11:44;13.45;;;10.52;;
22995;SDS011;11664;49.774;8.650;2023-05-09T05:14:10;11.35;;;9.65;;
22995;SDS011;11664;49.774;8.650;2023-05-09T05:16:35;18.98;;;17.45;;
22995;SDS011;11664;49.774;8.650;2023-05-09T05:19:01;17.60;;;16.02;;
22995;SDS011;11664;49.774;8.650;2023-05-09T05:21:27;11.48;;;9.80;;
22995;SDS011;11664;49.774;8.650;2023-05-09T05:23:52;11.60;;;10.30;;
22995;SDS011;11664;49.774;8.650;2023-05-09T05:26:18;18.35;;;16.67;;
22995;SDS011;11664;49.774;8.650;2023-05-09T05:28:43;12.90;;;10.45;;
22995;SDS011;11664;49.774;8.650;2023-05-09T05:31:09;11.63;;;9.02;;
22995;SDS011;11664;49.774;8.650;2023-05-09T05:33:35;11.45;;;10.13;;
22995;SDS011;11664;49.774;8.650;2023-05-09T05:36:00;16.17;;;14.68;;
22995;SDS011;11664;49.774;8.650;2023-05-09T05:38:26;68.72;;;64.32;;
22995;SDS011;11664;49.774;8.650;2023-05-09T05:40:51;30.23;;;27.88;;
22995;SDS011;11664;49.774;8.650;2023-05-09T05:43:17;18.00;;;16.23;;
22995;SDS011;11664;49.774;8.650;2023-05-09T05:45:42;16.67;;;15.10;;
22995;SDS011;11664;49.774;8.650;2023-05-09T05:48:08;16.50;;;13.82;;
22995;SDS011;11664;49.774;8.650;2023-05-09T05:50:33;36.63;;;34.05;;
22995;SDS011;11664;49.774;8.650;2023-05-09T05:53:00;19.25;;;17.40;;
22995;SDS011;11664;49.774;8.650;2023-05-09T05:55:26;15.13;;;13.68;;
22995;SDS011;11664;49.774;8.650;2023-05-09T05:57:51;16.13;;;12.88;;
22995;SDS011;11664;49.774;8.650;2023-05-09T06:00:19;14.32;;;12.15;;
22995;SDS011;11664;49.774;8.650;2023-05-09T06:02:45;19.25;;;16.55;;
22995;SDS011;11664;49.774;8.650;2023-05-09T06:05:13;15.50;;;13.90;;
22995;SDS011;11664;49.774;8.650;2023-05-09T06:07:39;11.02;;;9.88;;
22995;SDS011;11664;49.774;8.650;2023-05-09T06:10:08;12.15;;;10.85;;
22995;SDS011;11664;49.774;8.650;2023-05-09T06:12:34;13.13;;;8.60;;
22995;SDS011;11664;49.774;8.650;2023-05-09T06:14:59;14.95;;;11.23;;
22995;SDS011;11664;49.774;8.650;2023-05-09T06:17:25;12.80;;;11.30;;
22995;SDS011;11664;49.774;8.650;2023-05-09T06:19:51;15.55;;;10.40;;
22995;SDS011;11664;49.774;8.650;2023-05-09T06:22:16;16.13;;;11.35;;
22995;SDS011;11664;49.774;8.650;2023-05-09T06:24:42;15.50;;;11.27;;
22995;SDS011;11664;49.774;8.650;2023-05-09T06:27:07;13.65;;;9.65;;
22995;SDS011;11664;49.774;8.650;2023-05-09T06:29:33;11.05;;;9.20;;
22995;SDS011;11664;49.774;8.650;2023-05-09T06:31:58;11.13;;;9.40;;
22995;SDS011;11664;49.774;8.650;2023-05-09T06:34:24;16.73;;;13.98;;
22995;SDS011;11664;49.774;8.650;2023-05-09T06:36:49;13.48;;;12.00;;
22995;SDS011;11664;49.774;8.650;2023-05-09T06:39:15;19.25;;;12.30;;
22995;SDS011;11664;49.774;8.650;2023-05-09T06:41:40;14.65;;;11.50;;
22995;SDS011;11664;49.774;8.650;2023-05-09T06:44:06;14.45;;;9.32;;
22995;SDS011;11664;49.774;8.650;2023-05-09T06:46:31;11.48;;;9.48;;
22995;SDS011;11664;49.774;8.650;2023-05-09T06:48:57;19.08;;;10.00;;
22995;SDS011;11664;49.774;8.650;2023-05-09T06:51:25;15.85;;;11.18;;
22995;SDS011;11664;49.774;8.650;2023-05-09T06:53:51;15.30;;;10.38;;
22995;SDS011;11664;49.774;8.650;2023-05-09T06:56:16;12.70;;;9.80;;
22995;SDS011;11664;49.774;8.650;2023-05-09T06:58:43;16.85;;;12.25;;
22995;SDS011;11664;49.774;8.650;2023-05-09T07:01:09;15.45;;;11.80;;
22995;SDS011;11664;49.774;8.650;2023-05-09T07:03:34;14.60;;;10.88;;
22995;SDS011;11664;49.774;8.650;2023-05-09T07:06:00;16.17;;;14.52;;
22995;SDS011;11664;49.774;8.650;2023-05-09T07:08:25;18.08;;;13.77;;
22995;SDS011;11664;49.774;8.650;2023-05-09T07:10:51;17.95;;;15.75;;
22995;SDS011;11664;49.774;8.650;2023-05-09T07:13:16;17.52;;;13.93;;
22995;SDS011;11664;49.774;8.650;2023-05-09T07:15:42;18.92;;;17.15;;
22995;SDS011;11664;49.774;8.650;2023-05-09T07:18:07;15.65;;;13.18;;
22995;SDS011;11664;49.774;8.650;2023-05-09T07:20:33;15.32;;;11.30;;
22995;SDS011;11664;49.774;8.650;2023-05-09T07:22:58;15.27;;;10.00;;
22995;SDS011;11664;49.774;8.650;2023-05-09T07:25:24;12.30;;;9.90;;
22995;SDS011;11664;49.774;8.650;2023-05-09T07:27:49;13.40;;;9.80;;
22995;SDS011;11664;49.774;8.650;2023-05-09T07:30:15;13.38;;;11.43;;
22995;SDS011;11664;49.774;8.650;2023-05-09T07:32:40;16.65;;;10.70;;
22995;SDS011;11664;49.774;8.650;2023-05-09T07:35:06;13.02;;;10.32;;
22995;SDS011;11664;49.774;8.650;2023-05-09T07:37:32;11.15;;;9.80;;
22995;SDS011;11664;49.774;8.650;2023-05-09T07:39:57;12.93;;;9.77;;
22995;SDS011;11664;49.774;8.650;2023-05-09T07:42:23;14.38;;;10.52;;
22995;SDS011;11664;49.774;8.650;2023-05-09T07:44:48;13.60;;;10.50;;
22995;SDS011;11664;49.774;8.650;2023-05-09T07:47:14;13.75;;;9.82;;
22995;SDS011;11664;49.774;8.650;2023-05-09T07:49:39;16.52;;;10.10;;
22995;SDS011;11664;49.774;8.650;2023-05-09T07:52:07;17.63;;;11.35;;
22995;SDS011;11664;49.774;8.650;2023-05-09T07:54:33;14.07;;;10.20;;
22995;SDS011;11664;49.774;8.650;2023-05-09T07:56:58;17.85;;;10.25;;
22995;SDS011;11664;49.774;8.650;2023-05-09T07:59:24;14.57;;;9.07;;
22995;SDS011;11664;49.774;8.650;2023-05-09T08:01:49;14.68;;;9.55;;
22995;SDS011;11664;49.774;8.650;2023-05-09T08:04:15;13.05;;;9.27;;
22995;SDS011;11664;49.774;8.650;2023-05-09T08:06:40;13.73;;;10.32;;
22995;SDS011;11664;49.774;8.650;2023-05-09T08:09:06;11.70;;;9.90;;
22995;SDS011;11664;49.774;8.650;2023-05-09T08:11:32;13.50;;;9.68;;
22995;SDS011;11664;49.774;8.650;2023-05-09T08:13:58;15.65;;;10.65;;
22995;SDS011;11664;49.774;8.650;2023-05-09T08:16:24;14.90;;;10.68;;
22995;SDS011;11664;49.774;8.650;2023-05-09T08:18:50;13.98;;;8.43;;
22995;SDS011;11664;49.774;8.650;2023-05-09T08:21:16;15.25;;;10.98;;
22995;SDS011;11664;49.774;8.650;2023-05-09T08:23:41;15.73;;;10.13;;
22995;SDS011;11664;49.774;8.650;2023-05-09T08:26:07;14.55;;;10.43;;
22995;SDS011;11664;49.774;8.650;2023-05-09T08:28:32;17.05;;;11.35;;
22995;SDS011;11664;49.774;8.650;2023-05-09T08:30:58;12.20;;;10.13;;
22995;SDS011;11664;49.774;8.650;2023-05-09T08:33:23;16.00;;;11.02;;
22995;SDS011;11664;49.774;8.650;2023-05-09T08:35:50;15.48;;;10.63;;
22995;SDS011;11664;49.774;8.650;2023-05-09T08:38:20;17.40;;;10.80;;
22995;SDS011;11664;49.774;8.650;2023-05-09T08:40:45;13.95;;;10.50;;
22995;SDS011;11664;49.774;8.650;2023-05-09T08:43:11;17.33;;;14.52;;
22995;SDS011;11664;49.774;8.650;2023-05-09T08:45:44;15.80;;;12.93;;
22995;SDS011;11664;49.774;8.650;2023-05-09T08:48:11;12.25;;;10.93;;
22995;SDS011;11664;49.774;8.650;2023-05-09T08:50:39;12.30;;;9.73;;
22995;SDS011;11664;49.774;8.650;2023-05-09T08:53:05;13.32;;;9.48;;
22995;SDS011;11664;49.774;8.650;2023-05-09T08:55:31;12.50;;;9.18;;
22995;SDS011;11664;49.774;8.650;2023-05-09T08:57:57;13.23;;;10.10;;
22995;SDS011;11664;49.774;8.650;2023-05-09T09:00:23;15.15;;;13.02;;
22995;SDS011;11664;49.774;8.650;2023-05-09T09:02:50;13.38;;;11.98;;
22995;SDS011;11664;49.774;8.650;2023-05-09T09:05:17;17.98;;;16.42;;
22995;SDS011;11664;49.774;8.650;2023-05-09T09:07:42;18.83;;;17.00;;
22995;SDS011;11664;49.774;8.650;2023-05-09T09:10:10;23.40;;;21.58;;
22995;SDS011;11664;49.774;8.650;2023-05-09T09:12:35;19.45;;;17.88;;
22995;SDS011;11664;49.774;8.650;2023-05-09T09:15:03;17.45;;;15.65;;
22995;SDS011;11664;49.774;8.650;2023-05-09T09:17:29;15.82;;;14.38;;
22995;SDS011;11664;49.774;8.650;2023-05-09T09:19:57;21.55;;;19.60;;
22995;SDS011;11664;49.774;8.650;2023-05-09T09:22:26;20.95;;;19.38;;
22995;SDS011;11664;49.774;8.650;2023-05-09T09:24:58;15.63;;;14.10;;
22995;SDS011;11664;49.774;8.650;2023-05-09T09:27:24;13.93;;;12.38;;
22995;SDS011;11664;49.774;8.650;2023-05-09T09:29:49;12.93;;;11.68;;
22995;SDS011;11664;49.774;8.650;2023-05-09T09:32:15;17.40;;;12.82;;
22995;SDS011;11664;49.774;8.650;2023-05-09T09:34:42;16.42;;;14.85;;
22995;SDS011;11664;49.774;8.650;2023-05-09T09:37:07;24.75;;;22.90;;
22995;SDS011;11664;49.774;8.650;2023-05-09T09:39:33;23.88;;;22.20;;
22995;SDS011;11664;49.774;8.650;2023-05-09T09:42:08;23.35;;;21.63;;
22995;SDS011;11664;49.774;8.650;2023-05-09T09:44:37;20.85;;;19.30;;
22995;SDS011;11664;49.774;8.650;2023-05-09T09:47:02;24.55;;;22.45;;
22995;SDS011;11664;49.774;8.650;2023-05-09T09:49:31;24.10;;;22.30;;
22995;SDS011;11664;49.774;8.650;2023-05-09T09:51:57;20.27;;;18.52;;
22995;SDS011;11664;49.774;8.650;2023-05-09T09:54:26;25.17;;;23.38;;
22995;SDS011;11664;49.774;8.650;2023-05-09T09:56:52;25.70;;;23.92;;
22995;SDS011;11664;49.774;8.650;2023-05-09T09:59:21;30.85;;;28.67;;
22995;SDS011;11664;49.774;8.650;2023-05-09T10:01:53;25.08;;;23.35;;
22995;SDS011;11664;49.774;8.650;2023-05-09T10:04:25;24.83;;;23.10;;
22995;SDS011;11664;49.774;8.650;2023-05-09T10:06:59;23.55;;;21.63;;
22995;SDS011;11664;49.774;8.650;2023-05-09T10:09:27;12.57;;;11.35;;
22995;SDS011;11664;49.774;8.650;2023-05-09T10:11:53;13.45;;;12.07;;
22995;SDS011;11664;49.774;8.650;2023-05-09T10:14:21;13.32;;;11.48;;
22995;SDS011;11664;49.774;8.650;2023-05-09T10:16:48;21.45;;;19.65;;
22995;SDS011;11664;49.774;8.650;2023-05-09T10:19:19;13.50;;;12.30;;
22995;SDS011;11664;49.774;8.650;2023-05-09T10:21:49;13.95;;;12.63;;
22995;SDS011;11664;49.774;8.650;2023-05-09T10:24:20;12.80;;;11.73;;
22995;SDS011;11664;49.774;8.650;2023-05-09T10:26:51;13.00;;;11.80;;
22995;SDS011;11664;49.774;8.650;2023-05-09T10:29:22;14.17;;;12.90;;
22995;SDS011;11664;49.774;8.650;2023-05-09T10:31:52;14.85;;;13.45;;
22995;SDS011;11664;49.774;8.650;2023-05-09T10:34:20;17.67;;;16.23;;
22995;SDS011;11664;49.774;8.650;2023-05-09T10:36:48;23.08;;;21.38;;
22995;SDS011;11664;49.774;8.650;2023-05-09T10:39:14;24.27;;;22.58;;
22995;SDS011;11664;49.774;8.650;2023-05-09T10:41:41;29.75;;;27.80;;
22995;SDS011;11664;49.774;8.650;2023-05-09T10:44:07;31.35;;;29.23;;
22995;SDS011;11664;49.774;8.650;2023-05-09T10:46:33;24.02;;;22.42;;
22995;SDS011;11664;49.774;8.650;2023-05-09T10:48:59;31.15;;;28.95;;
22995;SDS011;11664;49.774;8.650;2023-05-09T10:51:26;16.17;;;14.90;;
22995;SDS011;11664;49.774;8.650;2023-05-09T10:53:51;10.82;;;9.77;;
22995;SDS011;11664;49.774;8.650;2023-05-09T10:56:23;8.65;;;7.85;;
22995;SDS011;11664;49.774;8.650;2023-05-09T10:58:56;11.18;;;10.00;;
22995;SDS011;11664;49.774;8.650;2023-05-09T11:03:57;8.40;;;7.63;;
22995;SDS011;11664;49.774;8.650;2023-05-09T11:12:00;16.42;;;15.23;;
22995;SDS011;11664;49.774;8.650;2023-05-09T11:17:07;10.90;;;9.88;;
22995;SDS011;11664;49.774;8.650;2023-05-09T11:24:49;9.73;;;8.95;;
22995;SDS011;11664;49.774;8.650;2023-05-09T11:27:18;9.52;;;8.73;;
22995;SDS011;11664;49.774;8.650;2023-05-09T11:29:55;11.68;;;10.68;;
22995;SDS011;11664;49.774;8.650;2023-05-09T11:32:32;10.20;;;9.40;;
22995;SDS011;11664;49.774;8.650;2023-05-09T11:37:48;6.45;;;5.95;;
22995;SDS011;11664;49.774;8.650;2023-05-09T11:40:16;7.85;;;7.18;;
22995;SDS011;11664;49.774;8.650;2023-05-09T11:42:45;9.25;;;8.60;;
22995;SDS011;11664;49.774;8.650;2023-05-09T11:45:17;14.15;;;13.23;;
22995;SDS011;11664;49.774;8.650;2023-05-09T11:47:42;9.30;;;8.60;;
22995;SDS011;11664;49.774;8.650;2023-05-09T11:50:11;6.72;;;6.22;;
22995;SDS011;11664;49.774;8.650;2023-05-09T11:52:38;7.93;;;7.32;;
22995;SDS011;11664;49.774;8.650;2023-05-09T11:55:04;10.48;;;9.55;;
22995;SDS011;11664;49.774;8.650;2023-05-09T11:57:31;16.52;;;15.43;;
22995;SDS011;11664;49.774;8.650;2023-05-09T11:59:58;14.82;;;13.82;;
22995;SDS011;11664;49.774;8.650;2023-05-09T12:02:25;10.82;;;10.07;;
22995;SDS011;11664;49.774;8.650;2023-05-09T12:04:51;8.80;;;8.10;;
22995;SDS011;11664;49.774;8.650;2023-05-09T12:07:19;7.35;;;6.75;;
22995;SDS011;11664;49.774;8.650;2023-05-09T12:09:44;5.78;;;5.28;;
22995;SDS011;11664;49.774;8.650;2023-05-09T12:12:12;6.30;;;5.80;;
22995;SDS011;11664;49.774;8.650;2023-05-09T12:14:39;7.82;;;7.22;;
22995;SDS011;11664;49.774;8.650;2023-05-09T12:17:05;6.78;;;6.18;;
22995;SDS011;11664;49.774;8.650;2023-05-09T12:19:31;7.53;;;5.25;;
22995;SDS011;11664;49.774;8.650;2023-05-09T12:21:58;6.10;;;5.60;;
22995;SDS011;11664;49.774;8.650;2023-05-09T12:24:24;5.60;;;5.20;;
22995;SDS011;11664;49.774;8.650;2023-05-09T12:26:51;5.68;;;5.28;;
22995;SDS011;11664;49.774;8.650;2023-05-09T12:29:18;6.28;;;5.75;;
22995;SDS011;11664;49.774;8.650;2023-05-09T12:31:45;6.72;;;6.22;;
22995;SDS011;11664;49.774;8.650;2023-05-09T12:34:11;10.45;;;9.73;;
22995;SDS011;11664;49.774;8.650;2023-05-09T12:36:37;9.90;;;9.30;;
22995;SDS011;11664;49.774;8.650;2023-05-09T12:39:07;11.80;;;11.10;;
22995;SDS011;11664;49.774;8.650;2023-05-09T12:42:10;7.60;;;7.10;;
22995;SDS011;11664;49.774;8.650;2023-05-09T12:44:38;7.88;;;7.38;;
22995;SDS011;11664;49.774;8.650;2023-05-09T12:47:04;7.55;;;6.95;;
22995;SDS011;11664;49.774;8.650;2023-05-09T12:49:30;7.97;;;7.47;;
22995;SDS011;11664;49.774;8.650;2023-05-09T12:51:57;7.38;;;6.78;;
22995;SDS011;11664;49.774;8.650;2023-05-09T12:54:25;8.15;;;7.65;;
22995;SDS011;11664;49.774;8.650;2023-05-09T12:56:52;6.88;;;6.40;;
22995;SDS011;11664;49.774;8.650;2023-05-09T12:59:21;9.25;;;8.65;;
22995;SDS011;11664;49.774;8.650;2023-05-09T13:02:06;7.10;;;6.60;;
22995;SDS011;11664;49.774;8.650;2023-05-09T13:04:31;6.68;;;6.07;;
22995;SDS011;11664;49.774;8.650;2023-05-09T13:06:57;6.85;;;6.35;;
22995;SDS011;11664;49.774;8.650;2023-05-09T13:09:24;7.07;;;6.57;;
22995;SDS011;11664;49.774;8.650;2023-05-09T13:11:51;7.53;;;6.85;;
22995;SDS011;11664;49.774;8.650;2023-05-09T13:14:17;7.93;;;7.38;;
22995;SDS011;11664;49.774;8.650;2023-05-09T13:16:45;8.32;;;7.72;;
22995;SDS011;11664;49.774;8.650;2023-05-09T13:19:11;9.63;;;9.00;;
22995;SDS011;11664;49.774;8.650;2023-05-09T13:21:36;7.80;;;7.20;;
22995;SDS011;11664;49.774;8.650;2023-05-09T13:24:02;8.43;;;7.78;;
22995;SDS011;11664;49.774;8.650;2023-05-09T13:26:28;9.18;;;8.52;;
22995;SDS011;11664;49.774;8.650;2023-05-09T13:28:54;8.60;;;7.97;;
22995;SDS011;11664;49.774;8.650;2023-05-09T13:31:20;9.30;;;8.68;;
22995;SDS011;11664;49.774;8.650;2023-05-09T13:33:46;10.68;;;9.88;;
22995;SDS011;11664;49.774;8.650;2023-05-09T13:36:12;10.10;;;9.45;;
22995;SDS011;11664;49.774;8.650;2023-05-09T13:38:38;6.18;;;5.78;;
22995;SDS011;11664;49.774;8.650;2023-05-09T13:41:07;8.95;;;6.80;;
22995;SDS011;11664;49.774;8.650;2023-05-09T13:43:33;7.30;;;6.68;;
22995;SDS011;11664;49.774;8.650;2023-05-09T13:46:00;7.50;;;6.95;;
22995;SDS011;11664;49.774;8.650;2023-05-09T13:48:26;10.65;;;9.55;;
22995;SDS011;11664;49.774;8.650;2023-05-09T13:50:54;8.18;;;7.55;;
22995;SDS011;11664;49.774;8.650;2023-05-09T13:53:24;8.77;;;8.15;;
22995;SDS011;11664;49.774;8.650;2023-05-09T13:55:49;8.85;;;8.25;;
22995;SDS011;11664;49.774;8.650;2023-05-09T13:58:15;12.18;;;11.07;;
22995;SDS011;11664;49.774;8.650;2023-05-09T14:00:40;9.48;;;8.70;;
22995;SDS011;11664;49.774;8.650;2023-05-09T14:03:06;14.32;;;13.25;;
22995;SDS011;11664;49.774;8.650;2023-05-09T14:05:31;11.05;;;10.32;;
22995;SDS011;11664;49.774;8.650;2023-05-09T14:07:58;8.85;;;8.25;;
22995;SDS011;11664;49.774;8.650;2023-05-09T14:10:23;8.90;;;8.23;;
22995;SDS011;11664;49.774;8.650;2023-05-09T14:12:51;8.85;;;8.23;;
22995;SDS011;11664;49.774;8.650;2023-05-09T14:15:18;8.23;;;7.05;;
22995;SDS011;11664;49.774;8.650;2023-05-09T14:17:43;7.90;;;7.20;;
22995;SDS011;11664;49.774;8.650;2023-05-09T14:20:09;7.72;;;7.03;;
22995;SDS011;11664;49.774;8.650;2023-05-09T14:22:35;7.68;;;7.05;;
22995;SDS011;11664;49.774;8.650;2023-05-09T14:25:00;10.38;;;9.48;;
22995;SDS011;11664;49.774;8.650;2023-05-09T14:27:26;13.18;;;11.93;;
22995;SDS011;11664;49.774;8.650;2023-05-09T14:29:51;22.20;;;20.70;;
22995;SDS011;11664;49.774;8.650;2023-05-09T14:32:17;19.40;;;18.10;;
22995;SDS011;11664;49.774;8.650;2023-05-09T14:34:42;19.27;;;17.95;;
22995;SDS011;11664;49.774;8.650;2023-05-09T14:37:09;23.83;;;21.92;;
22995;SDS011;11664;49.774;8.650;2023-05-09T14:39:41;16.45;;;15.07;;
22995;SDS011;11664;49.774;8.650;2023-05-09T14:42:08;26.90;;;17.33;;
22995;SDS011;11664;49.774;8.650;2023-05-09T14:44:38;20.73;;;19.23;;
22995;SDS011;11664;49.774;8.650;2023-05-09T14:47:06;15.95;;;14.65;;
22995;SDS011;11664;49.774;8.650;2023-05-09T14:49:32;16.52;;;15.40;;
22995;SDS011;11664;49.774;8.650;2023-05-09T14:51:58;24.13;;;22.58;;
22995;SDS011;11664;49.774;8.650;2023-05-09T14:54:24;13.52;;;12.57;;
22995;SDS011;11664;49.774;8.650;2023-05-09T14:56:49;22.00;;;20.65;;
22995;SDS011;11664;49.774;8.650;2023-05-09T14:59:15;32.85;;;31.00;;